Aviation Digital Data Service (ADDS)

Output produced by METARs form (2108 UTC 01 December 2021)
found at http://aviationweather.gov/metar/data/
 
KGLS 012052Z 15008KT 10SM FEW043 24/16 A3011 RMK AO2 SLP196 T02390161 56022
KGLS 011720Z 0118/0218 15007KT P6SM FEW025 SCT250 
     FM020800 VRB03KT 5SM BR SCT003 SCT250 
     FM021400 17005KT P6SM SCT250